Time;durP1;ratioP1;P1;durP2;ratioP2;P2;SDS_P1;SDS_P2;PMS_P1;PMS_P2;Temp;Humidity;BMP_temperature;BMP_pressure;BME280_temperature;BME280_humidity;BME280_pressure;Samples;Min_cycle;Max_cycle;Signal;HPM_P1;HPM_P2
2023/04/11 00:01:06;;;;;;;1999.90;999.90;;;28.70;76.20;;;;;;5027614;28;20091;-71
2023/04/11 00:03:33;;;;;;;1999.90;999.90;;;29.00;75.00;;;;;;5027973;28;20033;-73
2023/04/11 00:06:01;;;;;;;1999.90;999.90;;;29.10;74.50;;;;;;5031223;28;20064;-73
2023/04/11 00:08:28;;;;;;;1999.90;999.90;;;29.10;75.10;;;;;;5014295;28;20041;-72
2023/04/11 00:10:56;;;;;;;1999.90;999.90;;;29.00;75.10;;;;;;5026109;28;20103;-71
2023/04/11 00:13:23;;;;;;;1999.90;999.90;;;29.20;75.70;;;;;;5025602;28;20079;-70
2023/04/11 00:15:54;;;;;;;1999.90;999.90;;;29.30;74.50;;;;;;5029197;28;21109;-70
2023/04/11 00:18:24;;;;;;;1999.90;999.90;;;29.30;74.40;;;;;;5023262;28;20045;-69
2023/04/11 00:20:51;;;;;;;1999.90;999.90;;;29.60;74.80;;;;;;5019579;28;20029;-71
2023/04/11 00:23:19;;;;;;;1999.90;999.90;;;29.50;74.70;;;;;;5031672;28;20024;-71
2023/04/11 00:25:46;;;;;;;1999.90;999.90;;;29.40;75.40;;;;;;5031197;28;20051;-71
2023/04/11 00:28:14;;;;;;;1999.90;999.90;;;29.70;75.00;;;;;;5035478;28;20475;-70
2023/04/11 00:30:41;;;;;;;1999.90;999.90;;;29.70;75.10;;;;;;5035614;28;20114;-71
2023/04/11 00:33:08;;;;;;;1999.90;999.90;;;29.80;74.70;;;;;;5036267;28;20160;-70
2023/04/11 00:35:38;;;;;;;1999.90;999.90;;;29.80;75.30;;;;;;5029796;28;20033;-70
2023/04/11 00:38:05;;;;;;;1999.90;999.90;;;29.90;75.50;;;;;;5025871;28;20095;-70
2023/04/11 00:40:33;;;;;;;1999.90;999.90;;;30.10;75.20;;;;;;5022320;28;20026;-70
2023/04/11 00:43:00;;;;;;;1999.90;999.90;;;30.30;74.50;;;;;;5021239;28;20029;-70
2023/04/11 00:45:27;;;;;;;1999.90;999.90;;;30.20;74.50;;;;;;5027156;28;20050;-70
2023/04/11 00:47:55;;;;;;;1999.90;999.90;;;30.30;74.30;;;;;;5030420;28;20053;-70
2023/04/11 00:50:23;;;;;;;1999.90;999.90;;;30.10;74.60;;;;;;5033175;28;20032;-69
2023/04/11 00:52:52;;;;;;;1999.90;999.90;;;30.10;74.10;;;;;;5028814;28;20037;-70
2023/04/11 00:55:20;;;;;;;1999.90;999.90;;;30.10;75.60;;;;;;5022744;28;20040;-71
2023/04/11 00:57:48;;;;;;;1999.90;999.90;;;30.20;76.10;;;;;;5018883;28;21582;-70
2023/04/11 01:00:15;;;;;;;1999.90;999.90;;;30.40;76.20;;;;;;5033355;28;20021;-69
2023/04/11 01:02:45;;;;;;;1999.90;999.90;;;30.60;75.20;;;;;;5026762;28;20052;-71
2023/04/11 01:05:14;;;;;;;1999.90;999.90;;;30.70;76.20;;;;;;5030187;28;20862;-70
2023/04/11 01:07:46;;;;;;;1999.90;999.90;;;30.70;73.90;;;;;;5024391;28;20032;-69
2023/04/11 01:10:14;;;;;;;1999.90;999.90;;;30.60;74.10;;;;;;5033238;28;20160;-70
2023/04/11 01:12:43;;;;;;;1999.90;999.90;;;30.50;74.60;;;;;;5021345;28;20389;-69
2023/04/11 01:15:11;;;;;;;1999.90;999.90;;;30.70;73.90;;;;;;5027920;28;20044;-71
2023/04/11 01:17:40;;;;;;;1999.90;999.90;;;30.80;74.10;;;;;;5029678;28;20025;-69
2023/04/11 01:20:08;;;;;;;1999.90;999.90;;;30.80;74.10;;;;;;5042534;28;20475;-69
2023/04/11 01:22:38;;;;;;;1999.90;999.90;;;30.80;73.80;;;;;;5033081;28;20094;-70
2023/04/11 01:25:06;;;;;;;1999.90;999.90;;;30.90;74.70;;;;;;5036084;28;20025;-69
2023/04/11 01:27:34;;;;;;;1999.90;999.90;;;31.00;74.30;;;;;;5031149;28;20112;-70
2023/04/11 01:30:02;;;;;;;1999.90;999.90;;;31.00;73.70;;;;;;5033183;28;20053;-71
2023/04/11 01:32:29;;;;;;;1999.90;999.90;;;31.10;73.70;;;;;;5026774;28;20033;-70
2023/04/11 01:34:58;;;;;;;1999.90;999.90;;;31.10;75.00;;;;;;5034429;28;20083;-70
2023/04/11 01:37:25;;;;;;;1999.90;999.90;;;31.20;74.20;;;;;;5031695;28;20063;-71
2023/04/11 01:39:53;;;;;;;1999.90;999.90;;;31.10;73.70;;;;;;5034366;28;20037;-70
2023/04/11 01:42:22;;;;;;;1999.90;999.90;;;31.20;74.00;;;;;;5030782;28;20082;-70
2023/04/11 01:44:50;;;;;;;1999.90;999.90;;;30.90;73.40;;;;;;5034769;28;20038;-70
2023/04/11 01:47:18;;;;;;;1999.90;999.90;;;30.80;72.90;;;;;;5033769;28;20046;-70
2023/04/11 01:49:45;;;;;;;1999.90;999.90;;;30.50;73.50;;;;;;5035772;28;20025;-70
2023/04/11 01:52:12;;;;;;;1999.90;999.90;;;30.40;73.90;;;;;;5034522;28;20029;-70
2023/04/11 01:54:40;;;;;;;1999.90;999.90;;;30.40;76.30;;;;;;5037456;28;20025;-70
2023/04/11 01:57:07;;;;;;;1999.90;999.90;;;30.40;74.90;;;;;;5034303;28;20472;-70
2023/04/11 01:59:34;;;;;;;1999.90;999.90;;;30.30;75.60;;;;;;5037531;28;20037;-70
2023/04/11 02:02:02;;;;;;;1999.90;999.90;;;30.30;75.00;;;;;;5036587;28;20029;-70
2023/04/11 02:04:29;;;;;;;1999.90;999.90;;;30.20;75.30;;;;;;5028635;28;20507;-71
2023/04/11 02:06:56;;;;;;;1999.90;999.90;;;30.30;75.80;;;;;;5030334;28;20116;-70
2023/04/11 02:09:24;;;;;;;1999.90;999.90;;;30.30;75.70;;;;;;5038895;28;20033;-69
2023/04/11 02:11:51;;;;;;;1999.90;999.90;;;30.30;76.10;;;;;;5031407;28;20034;-69
2023/04/11 02:14:19;;;;;;;1999.90;999.90;;;30.30;75.80;;;;;;5030865;28;20480;-71
2023/04/11 02:17:08;;;;;;;1999.90;999.90;;;30.30;76.00;;;;;;5030998;28;20108;-70
2023/04/11 02:19:37;;;;;;;1999.90;999.90;;;30.40;75.80;;;;;;5034863;28;20033;-69
2023/04/11 02:22:04;;;;;;;1999.90;999.90;;;30.30;75.50;;;;;;5029286;28;21245;-68
2023/04/11 02:24:31;;;;;;;1999.90;999.90;;;30.40;76.10;;;;;;5033068;28;20029;-70
2023/04/11 02:27:00;;;;;;;1999.90;999.90;;;30.50;76.20;;;;;;5022579;28;20475;-70
2023/04/11 02:29:28;;;;;;;1999.90;999.90;;;30.60;75.80;;;;;;5023341;28;20032;-70
2023/04/11 02:31:55;;;;;;;1999.90;999.90;;;30.80;75.40;;;;;;5031927;28;20032;-70
2023/04/11 02:34:23;;;;;;;1999.90;999.90;;;30.80;75.10;;;;;;5034227;28;20025;-72
2023/04/11 02:36:50;;;;;;;1999.90;999.90;;;30.20;76.20;;;;;;5030729;28;20397;-72
2023/04/11 02:39:18;;;;;;;1999.90;999.90;;;29.50;76.30;;;;;;5031119;28;20033;-68
2023/04/11 02:41:45;;;;;;;1999.90;999.90;;;28.90;77.30;;;;;;5019178;28;20029;-70
2023/04/11 02:44:13;;;;;;;1999.90;999.90;;;28.90;77.70;;;;;;5021393;28;20061;-70
2023/04/11 02:46:40;;;;;;;1999.90;999.90;;;29.10;78.10;;;;;;5021977;28;20792;-70
2023/04/11 02:49:07;;;;;;;1999.90;999.90;;;29.20;76.90;;;;;;5027062;28;20071;-70
2023/04/11 02:51:35;;;;;;;1999.90;999.90;;;29.00;77.90;;;;;;5029381;28;20092;-70
2023/04/11 02:54:02;;;;;;;1999.90;999.90;;;28.60;78.10;;;;;;5026762;28;20025;-69
2023/04/11 02:56:30;;;;;;;1999.90;999.90;;;28.90;79.10;;;;;;5029226;28;20036;-69
2023/04/11 02:58:57;;;;;;;1999.90;999.90;;;29.40;77.30;;;;;;5031459;28;20119;-69
2023/04/11 03:01:25;;;;;;;1999.90;999.90;;;29.80;77.20;;;;;;5040288;28;20091;-69
2023/04/11 03:03:52;;;;;;;1999.90;999.90;;;30.00;76.60;;;;;;5031253;28;20119;-69
2023/04/11 03:06:20;;;;;;;1999.90;999.90;;;29.80;76.60;;;;;;5032009;28;20044;-69
2023/04/11 03:08:48;;;;;;;1999.90;999.90;;;29.30;76.30;;;;;;5033179;28;20430;-69
2023/04/11 03:11:16;;;;;;;1999.90;999.90;;;28.70;76.80;;;;;;5037623;28;20036;-69
2023/04/11 03:13:44;;;;;;;1999.90;999.90;;;28.20;77.80;;;;;;5031732;28;20093;-69
2023/04/11 03:16:12;;;;;;;1999.90;999.90;;;28.00;77.80;;;;;;5028729;28;20032;-69
2023/04/11 03:18:39;;;;;;;1999.90;999.90;;;27.60;77.40;;;;;;5031633;28;20021;-70
2023/04/11 03:21:09;;;;;;;1999.90;999.90;;;27.40;79.10;;;;;;5034530;28;20419;-69
2023/04/11 03:23:37;;;;;;;1999.90;999.90;;;27.10;79.30;;;;;;5027487;28;20079;-69
2023/04/11 03:26:06;;;;;;;1999.90;999.90;;;26.70;79.30;;;;;;5030280;28;20844;-69
2023/04/11 03:28:33;;;;;;;1999.90;999.90;;;26.40;79.80;;;;;;5032016;28;20144;-69
2023/04/11 03:31:01;;;;;;;1999.90;999.90;;;26.10;80.50;;;;;;5041343;28;20387;-69
2023/04/11 03:33:28;;;;;;;1999.90;999.90;;;26.30;80.70;;;;;;5031032;28;20112;-70
2023/04/11 03:35:55;;;;;;;1999.90;999.90;;;26.50;80.60;;;;;;5032260;28;20488;-69
2023/04/11 03:38:23;;;;;;;1999.90;999.90;;;26.60;80.80;;;;;;5031833;28;20107;-69
2023/04/11 03:40:50;;;;;;;1999.90;999.90;;;26.90;80.70;;;;;;5032399;28;20108;-69
2023/04/11 03:43:18;;;;;;;1999.90;999.90;;;27.00;80.50;;;;;;5031792;28;20472;-69
2023/04/11 03:45:45;;;;;;;1999.90;999.90;;;26.90;78.60;;;;;;5030039;28;20045;-69
2023/04/11 03:48:13;;;;;;;1999.90;999.90;;;26.70;79.10;;;;;;5028720;28;20133;-68
2023/04/11 03:50:40;;;;;;;1999.90;999.90;;;26.40;80.00;;;;;;5033223;28;20033;-71
2023/04/11 03:53:07;;;;;;;1999.90;999.90;;;26.10;80.70;;;;;;5041358;28;20033;-69
2023/04/11 03:55:35;;;;;;;1999.90;999.90;;;25.90;81.30;;;;;;5033051;28;20029;-69
2023/04/11 03:58:02;;;;;;;1999.90;999.90;;;25.70;81.60;;;;;;5032055;28;20020;-68
2023/04/11 04:00:30;;;;;;;1999.90;999.90;;;25.60;82.80;;;;;;5034152;28;20041;-69
2023/04/11 04:02:57;;;;;;;1999.90;999.90;;;25.50;83.00;;;;;;5033784;28;20021;-68
2023/04/11 04:05:24;;;;;;;1999.90;999.90;;;25.50;82.90;;;;;;5039731;28;20030;-68
2023/04/11 04:07:52;;;;;;;1999.90;999.90;;;25.60;83.00;;;;;;5035463;28;20029;-69
2023/04/11 04:10:19;;;;;;;1999.90;999.90;;;25.70;83.20;;;;;;5036972;28;20512;-69
2023/04/11 04:12:46;;;;;;;1999.90;999.90;;;25.70;82.70;;;;;;5031345;28;20033;-70
2023/04/11 04:15:14;;;;;;;1999.90;999.90;;;25.70;82.90;;;;;;5037605;28;20029;-70
2023/04/11 04:17:42;;;;;;;1999.90;999.90;;;25.60;82.90;;;;;;5027182;28;20542;-68
2023/04/11 04:20:09;;;;;;;1999.90;999.90;;;25.40;83.00;;;;;;5038386;28;20030;-69
2023/04/11 04:22:37;;;;;;;1999.90;999.90;;;25.30;82.50;;;;;;5036292;28;20037;-69
2023/04/11 04:25:05;;;;;;;1999.90;999.90;;;25.20;83.20;;;;;;5035000;28;20147;-69
2023/04/11 04:27:32;;;;;;;1999.90;999.90;;;25.10;83.10;;;;;;5037641;28;20043;-71
2023/04/11 04:30:00;;;;;;;1999.90;999.90;;;25.00;83.70;;;;;;5033719;28;20594;-71
2023/04/11 04:32:29;;;;;;;1999.90;999.90;;;24.80;84.00;;;;;;5034021;28;20550;-69
2023/04/11 04:34:57;;;;;;;1999.90;999.90;;;24.70;84.20;;;;;;5033236;28;20021;-70
2023/04/11 04:37:26;;;;;;;1999.90;999.90;;;24.50;84.40;;;;;;5032998;28;20025;-70
2023/04/11 04:39:56;;;;;;;1999.90;999.90;;;24.40;84.90;;;;;;5031595;28;20024;-71
2023/04/11 04:42:28;;;;;;;1999.90;999.90;;;24.30;85.10;;;;;;5017298;28;20640;-70
2023/04/11 04:44:56;;;;;;;1999.90;999.90;;;24.20;85.30;;;;;;5023456;28;20080;-71
2023/04/11 04:47:28;;;;;;;1999.90;999.90;;;24.20;86.00;;;;;;5034018;28;20045;-69
2023/04/11 04:49:56;;;;;;;1999.90;999.90;;;24.10;86.40;;;;;;5033338;28;20480;-68
2023/04/11 04:52:28;;;;;;;1999.90;999.90;;;24.20;86.40;;;;;;5027756;28;20420;-69
2023/04/11 04:54:57;;;;;;;1999.90;999.90;;;24.20;85.90;;;;;;5033044;28;20037;-70
2023/04/11 04:57:28;;;;;;;1999.90;999.90;;;24.30;85.80;;;;;;5037177;28;20086;-70
2023/04/11 04:59:56;;;;;;;1999.90;999.90;;;24.30;85.30;;;;;;5031827;28;20539;-69
2023/04/11 05:02:27;;;;;;;1999.90;999.90;;;24.20;85.60;;;;;;5030014;28;20036;-68
2023/04/11 05:04:54;;;;;;;1999.90;999.90;;;24.20;86.40;;;;;;5033597;28;20087;-71
2023/04/11 05:07:22;;;;;;;1999.90;999.90;;;24.20;86.80;;;;;;5028958;28;20484;-70
2023/04/11 05:09:49;;;;;;;1999.90;999.90;;;24.10;87.30;;;;;;5032384;28;20060;-69
2023/04/11 05:12:19;;;;;;;1999.90;999.90;;;24.10;87.70;;;;;;5029515;28;20068;-70
2023/04/11 05:14:46;;;;;;;1999.90;999.90;;;24.00;87.10;;;;;;5035320;28;20057;-71
2023/04/11 05:17:15;;;;;;;1999.90;999.90;;;24.00;86.90;;;;;;5026694;28;20025;-70
2023/04/11 05:19:42;;;;;;;1999.90;999.90;;;24.00;86.70;;;;;;5025013;28;20034;-70
2023/04/11 05:22:10;;;;;;;1999.90;999.90;;;24.00;87.20;;;;;;5027370;28;20038;-70
2023/04/11 05:24:37;;;;;;;1999.90;999.90;;;24.00;87.80;;;;;;5027997;28;20072;-71
2023/04/11 05:27:04;;;;;;;1999.90;999.90;;;24.00;88.50;;;;;;5029852;28;20024;-71
2023/04/11 05:29:31;;;;;;;1999.90;999.90;;;24.00;88.50;;;;;;5027740;28;20105;-71
2023/04/11 05:31:59;;;;;;;1999.90;999.90;;;24.00;88.40;;;;;;5032871;28;20022;-72
2023/04/11 05:34:31;;;;;;;1999.90;999.90;;;24.00;87.80;;;;;;5033290;28;20037;-74
2023/04/11 05:36:58;;;;;;;1999.90;999.90;;;24.00;87.00;;;;;;5022798;28;20029;-69
2023/04/11 05:39:25;;;;;;;1999.90;999.90;;;23.90;87.30;;;;;;5026176;28;20093;-69
2023/04/11 05:41:53;;;;;;;1999.90;999.90;;;23.80;87.60;;;;;;5023496;28;20113;-69
2023/04/11 05:44:20;;;;;;;1999.90;999.90;;;23.70;87.60;;;;;;5034435;28;20076;-70
2023/04/11 05:46:47;;;;;;;1999.90;999.90;;;23.60;88.30;;;;;;5020552;28;20627;-68
2023/04/11 05:49:15;;;;;;;1999.90;999.90;;;23.50;88.20;;;;;;5030319;28;20072;-69
2023/04/11 05:51:42;;;;;;;1999.90;999.90;;;23.30;90.10;;;;;;5025102;28;20048;-70
2023/04/11 05:54:09;;;;;;;1999.90;999.90;;;23.10;90.70;;;;;;5028402;28;20022;-68
2023/04/11 05:56:38;;;;;;;1999.90;999.90;;;22.90;91.00;;;;;;5027363;28;20857;-70
2023/04/11 05:59:05;;;;;;;1999.90;999.90;;;22.70;91.40;;;;;;5031171;28;20067;-69
2023/04/11 06:01:33;;;;;;;1999.90;999.90;;;22.60;91.60;;;;;;5023053;28;20044;-69
2023/04/11 06:04:00;;;;;;;1999.90;999.90;;;22.50;91.90;;;;;;5032975;28;20049;-68
2023/04/11 06:06:28;;;;;;;1999.90;999.90;;;22.40;92.10;;;;;;5029077;28;20069;-69
2023/04/11 06:08:55;;;;;;;1999.90;999.90;;;22.40;92.20;;;;;;5032135;28;20384;-68
2023/04/11 06:11:24;;;;;;;1999.90;999.90;;;22.30;92.30;;;;;;5031200;28;20714;-68
2023/04/11 06:13:51;;;;;;;1999.90;999.90;;;22.20;92.60;;;;;;5029401;28;20435;-69
2023/04/11 06:16:19;;;;;;;1999.90;999.90;;;22.20;92.70;;;;;;5022704;28;20038;-68
2023/04/11 06:18:46;;;;;;;1999.90;999.90;;;22.20;92.70;;;;;;5028017;28;22077;-68
2023/04/11 06:21:13;;;;;;;1999.90;999.90;;;22.20;92.70;;;;;;5028503;28;20029;-69
2023/04/11 06:23:41;;;;;;;1999.90;999.90;;;22.20;92.70;;;;;;5030323;28;20025;-68
2023/04/11 06:26:08;;;;;;;1999.90;999.90;;;22.20;92.70;;;;;;5028575;28;20043;-67
2023/04/11 06:28:35;;;;;;;1999.90;999.90;;;22.10;92.50;;;;;;5022303;28;20064;-67
2023/04/11 06:31:03;;;;;;;1999.90;999.90;;;22.00;92.60;;;;;;5028231;28;20156;-69
2023/04/11 06:33:30;;;;;;;1999.90;999.90;;;22.00;92.80;;;;;;5028379;28;20518;-67
2023/04/11 06:35:57;;;;;;;1999.90;999.90;;;22.00;93.10;;;;;;5027534;28;20469;-70
2023/04/11 06:38:25;;;;;;;1999.90;999.90;;;21.90;93.10;;;;;;5024718;28;20518;-69
2023/04/11 06:40:53;;;;;;;1999.90;999.90;;;21.80;93.30;;;;;;5024887;28;20099;-68
2023/04/11 06:43:21;;;;;;;1999.90;999.90;;;21.80;93.40;;;;;;5024963;28;20160;-69
2023/04/11 06:45:48;;;;;;;1999.90;999.90;;;21.70;93.40;;;;;;5028372;28;20041;-70
2023/04/11 06:48:19;;;;;;;1999.90;999.90;;;21.70;93.70;;;;;;5022572;28;20042;-68
2023/04/11 06:50:48;;;;;;;1999.90;999.90;;;21.70;93.50;;;;;;5031857;28;20108;-68
2023/04/11 06:53:16;;;;;;;1999.90;999.90;;;21.60;93.70;;;;;;5019376;28;20047;-69
2023/04/11 06:55:43;;;;;;;1999.90;999.90;;;21.60;93.90;;;;;;5018375;28;20026;-69
2023/04/11 06:58:10;;;;;;;1999.90;999.90;;;21.60;93.90;;;;;;5023413;28;20110;-69
2023/04/11 07:00:37;;;;;;;1999.90;999.90;;;21.50;94.10;;;;;;5024992;28;20026;-69
2023/04/11 07:03:07;;;;;;;1999.90;999.90;;;21.50;94.20;;;;;;5016805;28;20029;-70
2023/04/11 07:05:36;;;;;;;1999.90;999.90;;;21.40;94.30;;;;;;5032684;28;20041;-69
2023/04/11 07:08:03;;;;;;;1999.90;999.90;;;21.40;94.30;;;;;;5023371;28;20372;-68
2023/04/11 07:10:31;;;;;;;1999.90;999.90;;;21.30;94.30;;;;;;5029955;28;20079;-69
2023/04/11 07:12:58;;;;;;;1999.90;999.90;;;21.20;94.30;;;;;;5031575;28;20484;-69
2023/04/11 07:15:26;;;;;;;1999.90;999.90;;;21.10;94.50;;;;;;5030843;28;20033;-68
2023/04/11 07:17:53;;;;;;;1999.90;999.90;;;21.00;94.40;;;;;;5030219;28;20042;-71
2023/04/11 07:20:21;;;;;;;1999.90;999.90;;;20.80;94.70;;;;;;5025959;28;20066;-70
2023/04/11 07:22:48;;;;;;;1999.90;999.90;;;20.70;94.80;;;;;;5020666;28;20029;-70
2023/04/11 07:25:15;;;;;;;1999.90;999.90;;;20.50;94.80;;;;;;5026582;28;20387;-69
2023/04/11 07:27:45;;;;;;;1999.90;999.90;;;20.40;95.10;;;;;;5021477;28;20414;-69
2023/04/11 07:30:13;;;;;;;1999.90;999.90;;;20.30;95.00;;;;;;5024655;28;20419;-70
2023/04/11 07:32:40;;;;;;;1999.90;999.90;;;20.20;95.30;;;;;;5027613;28;20032;-70
2023/04/11 07:35:08;;;;;;;1999.90;999.90;;;20.10;95.50;;;;;;5022431;28;20033;-70
2023/04/11 07:37:35;;;;;;;1999.90;999.90;;;19.90;95.80;;;;;;5030415;28;20059;-69
2023/04/11 07:40:05;;;;;;;1999.90;999.90;;;19.80;95.90;;;;;;5029683;28;20026;-71
2023/04/11 07:42:32;;;;;;;1999.90;999.90;;;19.80;96.20;;;;;;5029886;28;20041;-70
2023/04/11 07:45:00;;;;;;;1999.90;999.90;;;19.70;96.40;;;;;;5032633;28;20022;-70
2023/04/11 07:47:27;;;;;;;1999.90;999.90;;;19.60;96.60;;;;;;5033715;28;20084;-70
2023/04/11 07:49:54;;;;;;;1999.90;999.90;;;19.50;96.80;;;;;;5031031;28;20257;-69
2023/04/11 07:52:22;;;;;;;1999.90;999.90;;;19.40;96.90;;;;;;5030349;28;20029;-70
2023/04/11 07:54:49;;;;;;;1999.90;999.90;;;19.30;97.20;;;;;;5025698;28;20021;-69
2023/04/11 07:57:16;;;;;;;1999.90;999.90;;;19.30;97.30;;;;;;5032330;28;20061;-68
2023/04/11 07:59:45;;;;;;;1999.90;999.90;;;19.20;97.60;;;;;;5027170;28;20041;-67
2023/04/11 08:02:12;;;;;;;1999.90;999.90;;;19.10;97.90;;;;;;5022990;28;20017;-69
2023/04/11 08:04:40;;;;;;;1999.90;999.90;;;19.00;98.20;;;;;;5027612;28;20028;-69
2023/04/11 08:07:07;;;;;;;1999.90;999.90;;;18.90;98.40;;;;;;5028747;28;20043;-69
2023/04/11 08:09:34;;;;;;;1999.90;999.90;;;18.80;98.80;;;;;;5032693;28;20032;-70
2023/04/11 08:12:02;;;;;;;1999.90;999.90;;;18.70;99.00;;;;;;5024379;28;21158;-68
2023/04/11 08:14:29;;;;;;;1999.90;999.90;;;18.60;99.20;;;;;;5035201;28;20053;-68
2023/04/11 08:16:58;;;;;;;1999.90;999.90;;;18.50;99.40;;;;;;5026822;28;20029;-69
2023/04/11 08:19:26;;;;;;;1999.90;999.90;;;18.50;99.70;;;;;;5026951;28;20037;-70
2023/04/11 08:21:54;;;;;;;1999.90;999.90;;;18.40;99.90;;;;;;5029883;28;20096;-69
2023/04/11 08:24:21;;;;;;;1999.90;999.90;;;18.30;99.90;;;;;;5028660;28;20156;-69
2023/04/11 08:26:48;;;;;;;1999.90;999.90;;;18.20;99.90;;;;;;5022658;28;20041;-69
2023/04/11 08:29:17;;;;;;;1999.90;999.90;;;18.20;99.90;;;;;;5028571;28;20113;-69
2023/04/11 08:31:45;;;;;;;1999.90;999.90;;;18.10;99.90;;;;;;5025169;28;20037;-71
2023/04/11 08:34:12;;;;;;;1999.90;999.90;;;18.10;99.90;;;;;;5027852;28;20025;-71
2023/04/11 08:36:40;;;;;;;1999.90;999.90;;;18.10;99.90;;;;;;5030869;28;20038;-70
2023/04/11 08:39:07;;;;;;;1999.90;999.90;;;18.00;99.90;;;;;;5027472;28;20033;-70
2023/04/11 08:41:37;;;;;;;1999.90;999.90;;;18.00;99.90;;;;;;5025373;28;20033;-70
2023/04/11 08:44:04;;;;;;;1999.90;999.90;;;17.90;99.90;;;;;;5030459;28;20057;-69
2023/04/11 08:46:40;;;;;;;1999.90;999.90;;;17.90;99.90;;;;;;5023477;28;20041;-72
2023/04/11 08:49:07;;;;;;;1999.90;999.90;;;17.90;99.90;;;;;;5024768;28;20059;-71
2023/04/11 08:51:34;;;;;;;1999.90;999.90;;;17.80;99.90;;;;;;5028049;28;20055;-70
2023/04/11 08:54:06;;;;;;;1999.90;999.90;;;17.70;99.90;;;;;;5041987;28;20590;-69
2023/04/11 08:56:34;;;;;;;1999.90;999.90;;;17.70;99.90;;;;;;5023945;28;20104;-69
2023/04/11 08:59:02;;;;;;;1999.90;999.90;;;17.70;99.90;;;;;;5032660;28;20033;-69
2023/04/11 09:01:32;;;;;;;1999.90;999.90;;;17.60;99.90;;;;;;5031175;28;20026;-69
2023/04/11 09:04:04;;;;;;;1999.90;999.90;;;17.50;99.90;;;;;;5029315;28;20029;-70
2023/04/11 09:06:33;;;;;;;1999.90;999.90;;;17.50;99.90;;;;;;5026256;28;20053;-70
2023/04/11 09:09:05;;;;;;;1999.90;999.90;;;17.40;99.90;;;;;;5033059;28;20044;-69
2023/04/11 09:11:52;;;;;;;1999.90;999.90;;;17.30;99.90;;;;;;5025525;28;20032;-71
2023/04/11 09:14:25;;;;;;;1999.90;999.90;;;17.20;99.90;;;;;;5032518;28;20025;-71
2023/04/11 09:16:59;;;;;;;1999.90;999.90;;;17.20;99.90;;;;;;5031102;28;20038;-70
2023/04/11 09:19:32;;;;;;;1999.90;999.90;;;17.10;99.90;;;;;;5029279;28;20047;-70
2023/04/11 09:22:04;;;;;;;1999.90;999.90;;;17.10;99.90;;;;;;5034197;28;20057;-68
2023/04/11 09:24:32;;;;;;;1999.90;999.90;;;17.20;99.90;;;;;;5031098;28;20045;-69
2023/04/11 09:27:19;;;;;;;1999.90;999.90;;;17.20;99.90;;;;;;5038889;28;20047;-70
2023/04/11 09:29:48;;;;;;;1999.90;999.90;;;17.20;99.90;;;;;;5025849;28;20033;-69
2023/04/11 09:32:32;;;;;;;1999.90;999.90;;;17.10;99.90;;;;;;5039685;28;20076;-68
2023/04/11 09:35:19;;;;;;;1999.90;999.90;;;17.20;99.90;;;;;;5038341;28;20105;-68
2023/04/11 09:37:50;;;;;;;1999.90;999.90;;;17.10;99.90;;;;;;5032391;28;20396;-69
2023/04/11 09:40:21;;;;;;;1999.90;999.90;;;17.10;99.90;;;;;;5035960;28;20033;-69
2023/04/11 09:42:57;;;;;;;1999.90;999.90;;;17.10;99.90;;;;;;5036693;28;20488;-69
2023/04/11 09:45:24;;;;;;;;;;;17.00;99.90;;;;;;5028400;28;20038;-71
2023/04/11 09:47:57;;;;;;;1999.90;999.90;;;17.00;99.90;;;;;;5034638;28;19921;-69
2023/04/11 09:50:25;;;;;;;1999.90;999.90;;;17.00;99.90;;;;;;5031228;28;20022;-69
2023/04/11 09:52:54;;;;;;;1999.90;999.90;;;16.90;99.90;;;;;;5030297;28;20040;-69
2023/04/11 09:55:24;;;;;;;1999.90;999.90;;;16.90;99.90;;;;;;5033255;28;20022;-70
2023/04/11 09:57:53;;;;;;;1999.90;999.90;;;16.80;99.90;;;;;;5034154;28;20472;-69
2023/04/11 10:00:31;;;;;;;1999.90;999.90;;;16.80;99.90;;;;;;5024933;28;20112;-70
2023/04/11 10:02:58;;;;;;;1999.90;999.90;;;16.80;99.90;;;;;;5029716;28;20083;-69
2023/04/11 10:05:28;;;;;;;1999.90;999.90;;;16.70;99.90;;;;;;5032438;28;20042;-70
2023/04/11 10:07:59;;;;;;;1999.90;999.90;;;16.60;99.90;;;;;;5031506;28;20064;-70
2023/04/11 10:10:26;;;;;;;1999.90;999.90;;;16.60;99.90;;;;;;5027531;28;20120;-69
2023/04/11 10:12:54;;;;;;;1999.90;999.90;;;16.60;99.90;;;;;;5029430;28;20034;-69
2023/04/11 10:15:21;;;;;;;1999.90;999.90;;;16.50;99.90;;;;;;5031372;28;20025;-69
2023/04/11 10:18:20;;;;;;;1999.90;999.90;;;16.40;99.90;;;;;;5030334;28;20017;-69
2023/04/11 10:20:49;;;;;;;1999.90;999.90;;;16.40;99.90;;;;;;5025529;28;20116;-69
2023/04/11 10:23:17;;;;;;;1999.90;999.90;;;16.30;99.90;;;;;;5032658;28;20686;-68
2023/04/11 10:25:52;;;;;;;1999.90;999.90;;;16.30;99.90;;;;;;5031001;28;20036;-69
2023/04/11 10:28:35;;;;;;;1999.90;999.90;;;16.20;99.90;;;;;;5027992;28;20051;-69
2023/04/11 10:31:12;;;;;;;1999.90;999.90;;;16.20;99.90;;;;;;5031686;28;20503;-68
2023/04/11 10:34:00;;;;;;;1999.90;999.90;;;16.10;99.90;;;;;;5033257;28;20033;-69
2023/04/11 10:36:27;;;;;;;1999.90;999.90;;;16.20;99.90;;;;;;5029521;28;20567;-69
2023/04/11 10:38:55;;;;;;;1999.90;999.90;;;16.10;99.90;;;;;;5032335;28;20145;-68
2023/04/11 10:41:27;;;;;;;1999.90;999.90;;;16.10;99.90;;;;;;5025228;28;20887;-69
2023/04/11 10:44:20;;;;;;;1999.90;999.90;;;16.10;99.90;;;;;;5025652;28;20029;-68
2023/04/11 10:46:54;;;;;;;1999.90;999.90;;;16.00;99.90;;;;;;5031944;28;20072;-68
2023/04/11 10:49:38;;;;;;;1999.90;999.90;;;15.90;99.90;;;;;;5036137;28;20369;-69
2023/04/11 10:52:17;;;;;;;1999.90;999.90;;;15.80;99.90;;;;;;5030420;28;20029;-68
2023/04/11 10:54:45;;;;;;;1999.90;999.90;;;15.80;99.90;;;;;;5026660;28;20059;-68
2023/04/11 10:57:13;;;;;;;1999.90;999.90;;;15.70;99.90;;;;;;5028713;28;20614;-68
2023/04/11 10:59:40;;;;;;;1999.90;999.90;;;15.70;99.90;;;;;;5029829;28;20059;-68
2023/04/11 11:02:08;;;;;;;1999.90;999.90;;;15.70;99.90;;;;;;5026694;28;20056;-68
2023/04/11 11:04:39;;;;;;;1999.90;999.90;;;15.60;99.90;;;;;;5035616;28;20105;-68
2023/04/11 11:07:12;;;;;;;1999.90;999.90;;;15.60;99.90;;;;;;5026629;28;20037;-68
2023/04/11 11:09:41;;;;;;;1999.90;999.90;;;15.70;99.90;;;;;;5032573;28;20025;-68
2023/04/11 11:12:13;;;;;;;1999.90;999.90;;;15.60;99.90;;;;;;5031719;28;20052;-68
2023/04/11 11:14:42;;;;;;;1999.90;999.90;;;15.70;99.90;;;;;;5030493;28;20037;-69
2023/04/11 11:17:12;;;;;;;1999.90;999.90;;;15.70;99.90;;;;;;5028664;28;20632;-69
2023/04/11 11:19:49;;;;;;;1999.90;999.90;;;15.70;99.90;;;;;;5032908;28;20034;-69
2023/04/11 11:22:26;;;;;;;1999.90;999.90;;;15.70;99.90;;;;;;5031824;28;20030;-69
2023/04/11 11:24:54;;;;;;;1999.90;999.90;;;15.70;99.90;;;;;;5028358;28;20021;-70
2023/04/11 11:27:25;;;;;;;1999.90;999.90;;;15.70;99.90;;;;;;5030715;28;20030;-70
2023/04/11 11:29:52;;;;;;;1999.90;999.90;;;15.60;99.90;;;;;;5031233;28;20087;-69
2023/04/11 11:32:26;;;;;;;1999.90;999.90;;;15.60;99.90;;;;;;5029954;28;20108;-70
2023/04/11 11:34:56;;;;;;;1999.90;999.90;;;15.60;99.90;;;;;;5031678;28;20034;-68
2023/04/11 11:37:23;;;;;;;1999.90;999.90;;;15.60;99.90;;;;;;5028236;28;20029;-68
2023/04/11 11:39:51;;;;;;;1999.90;999.90;;;15.50;99.90;;;;;;5027534;28;20519;-69
2023/04/11 11:42:18;;;;;;;1999.90;999.90;;;15.50;99.90;;;;;;5026345;28;20033;-68
2023/04/11 11:44:46;;;;;;;1999.90;999.90;;;15.50;99.90;;;;;;5023959;28;20033;-69
2023/04/11 11:47:16;;;;;;;1999.90;999.90;;;15.50;99.90;;;;;;5027881;28;20111;-69
2023/04/11 11:49:44;;;;;;;1999.90;999.90;;;15.40;99.90;;;;;;5032223;28;20419;-70
2023/04/11 11:52:12;;;;;;;1999.90;999.90;;;15.40;99.90;;;;;;5034558;28;20082;-71
2023/04/11 11:54:46;;;;;;;1999.90;999.90;;;15.40;99.90;;;;;;5038453;28;20032;-68
2023/04/11 11:57:23;;;;;;;1999.90;999.90;;;15.40;99.90;;;;;;5028824;28;20032;-69
2023/04/11 11:59:55;;;;;;;1999.90;999.90;;;15.30;99.90;;;;;;5035991;28;20028;-69
2023/04/11 12:02:26;;;;;;;1999.90;999.90;;;15.30;99.90;;;;;;5024215;28;20484;-69
2023/04/11 12:05:02;;;;;;;1999.90;999.90;;;15.30;99.90;;;;;;5029216;28;20116;-68
2023/04/11 12:07:35;;;;;;;1999.90;999.90;;;15.20;99.90;;;;;;5024526;28;20045;-69